Latest Weather Observations for Gatton

IDQ60901

Issued at 11:15 pm EST Friday 18 April 2014 (issued every 10 minutes, with the page automatically refreshed every 10 minutes)

About weather observations | Map of Brisbane area stations | Latest observations for Brisbane area | Other Formats
Station Details ID: 040082 Name: UNIVERSITY OF QUEENSLAND GATTON Lat: -27.54 Lon: 152.34 Height: 89.0 m
Data from the previous 72 hours. | See also: Recent months at Gatton
Date/Time
EST
Tmp

°C
App
Tmp
°C
Dew
Point
°C
Rel
Hum
%
Delta-T

°C
Wind Press
QNH
hPa
Press
MSL
hPa
Rain
since
9 am
mm
Dir
 
Spd
km/h
Gust
km/h
Spd
kts
Gust
kts
18/11:00pm 14.6 12.6 8.5 67 3.1 WSW 9 11 5 6 - - 0.0
18/10:30pm 14.4 12.4 8.8 69 2.8 WSW 9 13 5 7 - - 0.0
18/10:00pm 15.9 13.9 8.6 62 3.7 SW 9 13 5 7 - - 0.0
18/09:30pm 17.2 14.9 8.9 58 4.3 W 11 17 6 9 - - 0.0
18/09:00pm 17.9 15.7 9.3 57 4.5 W 11 15 6 8 - - 0.0
18/08:30pm 17.4 15.9 9.3 59 4.2 W 7 11 4 6 - - 0.0
18/08:00pm 18.1 16.9 9.7 58 4.5 W 6 9 3 5 - - 0.0
18/07:30pm 18.8 17.3 10.6 59 4.4 W 9 13 5 7 - - 0.0
18/07:00pm 17.7 17.7 11.0 65 3.6 W 2 7 1 4 - - 0.0
18/06:30pm 19.5 19.8 11.0 58 4.7 CALM 0 0 0 0 - - 0.0
18/06:00pm 20.3 20.3 9.8 51 5.6 CALM 0 0 0 0 - - 0.0
18/05:30pm 24.0 22.6 8.8 38 8.2 W 6 9 3 5 - - 0.0
18/05:00pm 26.8 24.7 8.3 31 10.0 WSW 9 13 5 7 - - 0.0
18/04:30pm 27.6 25.7 9.0 31 10.3 W 9 17 5 9 - - 0.0
18/04:00pm 27.7 24.8 8.1 29 10.6 W 13 20 7 11 - - 0.0
18/03:30pm 27.6 23.8 7.5 28 10.8 WSW 17 24 9 13 - - 0.0
18/03:00pm 28.2 26.3 9.0 30 10.6 WNW 9 13 5 7 - - 0.0
18/02:30pm 27.6 24.6 9.4 32 10.1 SW 15 19 8 10 - - 0.0
18/02:00pm 27.0 24.0 9.4 33 9.7 SSW 15 22 8 12 - - 0.0
18/01:30pm 26.9 24.5 10.2 35 9.4 SW 13 22 7 12 - - 0.0
18/01:00pm 26.6 24.8 9.5 34 9.5 WNW 9 19 5 10 - - 0.0
18/12:30pm 26.1 24.6 11.8 41 8.2 SW 11 20 6 11 - - 0.0
18/12:00pm 25.6 24.0 12.8 45 7.4 W 13 24 7 13 - - 0.0
18/11:30am 25.0 24.9 13.9 50 6.6 SSW 7 13 4 7 - - 0.0
18/11:00am 24.8 25.1 15.1 54 5.8 WNW 7 13 4 7 - - 0.0
18/10:30am 23.9 24.7 16.4 63 4.6 SSW 7 11 4 6 - - 0.0
18/10:00am 22.1 22.6 15.0 64 4.2 W 6 11 3 6 - - 0.0
18/09:30am 21.1 21.7 15.2 69 3.5 WSW 6 9 3 5 - - 0.0
18/09:00am 20.0 20.1 15.4 75 2.7 WSW 9 11 5 6 - - 0.0
18/08:30am 18.2 17.6 14.5 79 2.1 W 11 13 6 7 - - 0.0
18/08:00am 16.8 16.0 13.9 83 1.7 W 11 15 6 8 - - 0.0
18/07:30am 15.0 13.8 12.9 87 1.2 W 11 15 6 8 - - 0.0
18/07:00am 13.8 12.5 12.4 91 0.8 W 11 15 6 8 - - 0.0
18/06:30am 12.9 11.4 11.8 93 0.6 W 11 15 6 8 - - 0.0
18/06:00am 12.7 11.4 11.4 92 0.7 W 9 13 5 7 - - 0.0
18/05:30am 12.9 11.3 11.6 92 0.7 W 11 13 6 7 - - 0.0
18/05:00am 13.0 11.4 11.7 92 0.7 W 11 13 6 7 - - 0.0
18/04:30am 13.2 11.6 11.6 90 0.9 W 11 13 6 7 - - 0.0
18/04:00am 13.3 11.7 11.5 89 1.0 W 11 13 6 7 - - 0.0
18/03:30am 13.5 11.9 11.6 88 1.0 W 11 15 6 8 - - 0.0
18/03:00am 13.8 12.3 11.8 88 1.1 W 11 13 6 7 - - 0.0
18/02:30am 14.2 13.2 12.2 88 1.1 W 9 11 5 6 - - 0.0
18/02:00am 14.4 13.4 12.4 88 1.1 WSW 9 13 5 7 - - 0.0
18/01:30am 14.7 13.7 12.4 86 1.3 W 9 13 5 7 - - 0.0
18/01:00am 14.8 13.9 12.7 87 1.2 WSW 9 13 5 7 - - 0.0
18/12:30am 15.3 14.7 13.5 89 1.0 WSW 9 13 5 7 - - 0.0
18/12:00am 15.8 15.8 14.2 90 0.9 W 7 13 4 7 - - 0.0
 
Date/Time
EST
Tmp

°C
App
Tmp
°C
Dew
Point
°C
Rel
Hum
%
Delta-T

°C
Wind Press
QNH
hPa
Press
MSL
hPa
Rain
since
9 am
mm
Dir
 
Spd
km/h
Gust
km/h
Spd
kts
Gust
kts
17/11:30pm 15.4 16.6 13.8 90 0.9 CALM 0 6 0 3 - - 0.0
17/11:00pm 15.8 17.1 14.2 90 0.9 CALM 0 0 0 0 - - 0.0
17/10:30pm 16.0 17.3 14.0 88 1.1 CALM 0 0 0 0 - - 0.0
17/10:00pm 16.1 17.3 13.8 86 1.3 CALM 0 0 0 0 - - 0.0
17/09:30pm 16.3 16.1 13.6 84 1.5 WSW 7 7 4 4 - - 0.0
17/09:00pm 17.4 17.5 14.5 83 1.7 WSW 7 9 4 5 - - 0.0
17/08:30pm 18.0 18.9 14.1 78 2.2 ESE 2 6 1 3 - - 0.0
17/08:00pm 19.1 19.0 15.0 77 2.4 SE 9 15 5 8 - - 0.0
17/07:30pm 20.4 20.8 15.2 72 3.1 SSE 7 11 4 6 - - 0.0
17/07:00pm 20.5 21.9 15.3 72 3.1 NE 2 6 1 3 - - 0.0
17/06:30pm 20.8 21.1 15.1 70 3.4 N 7 9 4 5 - - 0.0
17/06:00pm 22.1 22.0 15.0 64 4.2 NE 9 11 5 6 - - 0.0
17/05:30pm 22.9 22.5 15.2 62 4.6 NNE 11 15 6 8 - - 0.0
17/05:00pm 23.8 23.4 15.3 59 5.1 N 11 15 6 8 - - 0.0
17/04:30pm 25.4 24.6 15.1 53 6.2 N 13 17 7 9 - - 0.0
17/04:00pm 26.0 24.6 14.5 49 6.9 N 15 17 8 9 - - 0.0
17/03:30pm 27.0 26.6 14.1 45 7.7 NNW 9 15 5 8 - - 0.0
17/03:00pm 27.1 27.0 13.4 42 8.1 WSW 6 11 3 6 - - 0.0
17/02:30pm 27.1 26.7 14.1 44 7.8 WNW 9 15 5 8 - - 0.0
17/02:00pm 26.7 27.1 15.4 50 6.9 NW 7 9 4 5 - - 0.0
17/01:30pm 25.3 25.1 13.5 48 6.9 SW 7 15 4 8 - - 0.0
17/01:00pm 25.7 25.6 13.9 48 7.0 NE 7 11 4 6 - - 0.0
17/12:30pm 24.9 24.8 15.0 54 6.0 SE 9 15 5 8 - - 0.0
17/12:00pm 24.6 24.8 14.7 54 5.9 E 7 17 4 9 - - 0.0
17/11:30am 24.1 23.7 14.2 54 5.9 N 9 13 5 7 - - 0.0
17/11:00am 23.4 23.1 13.3 53 5.9 ENE 7 13 4 7 - - 0.0
17/10:30am 23.3 23.4 13.8 55 5.6 NNE 6 13 3 7 - - 0.0
17/10:00am 22.6 23.0 14.7 61 4.7 NE 6 11 3 6 - - 0.0
17/09:30am 21.4 22.4 15.3 68 3.6 NW 4 9 2 5 - - 0.0
17/09:00am 19.8 20.2 15.4 76 2.6 W 7 9 4 5 - - 0.0
17/08:30am 18.0 18.3 15.1 83 1.7 WSW 7 11 4 6 - - 0.0
17/08:00am 16.4 16.0 14.1 86 1.3 WSW 9 11 5 6 - - 0.0
17/07:30am 15.1 14.8 13.3 89 1.0 W 7 11 4 6 - - 0.0
17/07:00am 13.9 13.4 12.8 93 0.6 W 7 9 4 5 - - 0.0
17/06:30am 12.8 12.0 11.7 93 0.6 WSW 7 9 4 5 - - 0.0
17/06:00am 12.7 11.9 11.6 93 0.6 W 7 11 4 6 - - 0.0
17/05:30am 12.9 11.8 11.8 93 0.6 W 9 11 5 6 - - 0.0
17/05:00am 13.1 11.6 12.0 93 0.6 W 11 13 6 7 - - 0.0
17/04:30am 13.4 12.0 12.1 92 0.7 W 11 13 6 7 - - 0.0
17/04:00am 13.6 12.2 12.3 92 0.7 W 11 15 6 8 - - 0.0
17/03:30am 13.7 12.7 12.4 92 0.7 W 9 13 5 7 - - 0.0
17/03:00am 13.8 12.9 12.5 92 0.7 W 9 13 5 7 - - 0.0
17/02:30am 14.0 13.1 12.6 91 0.8 W 9 11 5 6 - - 0.0
17/02:00am 14.2 13.4 12.9 92 0.7 W 9 11 5 6 - - 0.0
17/01:30am 14.2 13.4 12.8 91 0.8 W 9 11 5 6 - - 0.0
17/01:00am 14.3 13.4 12.7 90 0.9 W 9 11 5 6 - - 0.0
17/12:30am 14.4 14.1 12.6 89 1.0 WSW 6 7 3 4 - - 0.0
17/12:00am 14.9 14.5 13.1 89 1.0 WSW 7 9 4 5 - - 0.0
 
Date/Time
EST
Tmp

°C
App
Tmp
°C
Dew
Point
°C
Rel
Hum
%
Delta-T

°C
Wind Press
QNH
hPa
Press
MSL
hPa
Rain
since
9 am
mm
Dir
 
Spd
km/h
Gust
km/h
Spd
kts
Gust
kts
16/11:30pm 15.3 15.1 13.7 90 0.9 WSW 7 9 4 5 - - 0.0
16/11:00pm 15.2 15.2 14.2 94 0.6 WSW 7 9 4 5 - - 0.0
16/10:30pm 14.8 15.8 13.3 91 0.8 CALM 0 0 0 0 - - 0.0
16/10:00pm 15.3 16.5 13.8 91 0.8 CALM 0 0 0 0 - - 0.0
16/09:30pm 15.6 16.8 13.8 89 1.0 CALM 0 0 0 0 - - 0.0
16/09:00pm 15.9 17.1 13.7 87 1.2 CALM 0 0 0 0 - - 0.0
16/08:30pm 16.5 17.8 14.2 86 1.3 CALM 0 0 0 0 - - 0.0
16/08:00pm 17.4 18.9 14.7 84 1.6 CALM 0 0 0 0 - - 0.0
16/07:30pm 17.0 18.2 13.9 82 1.8 CALM 0 0 0 0 - - 0.0
16/07:00pm 18.6 20.0 14.3 76 2.5 CALM 0 0 0 0 - - 0.0
16/06:30pm 19.7 21.1 14.3 71 3.1 CALM 0 0 0 0 - - 0.0
16/06:00pm 20.9 22.3 14.5 67 3.8 CALM 0 0 0 0 - - 0.0
16/05:30pm 22.9 22.4 13.9 57 5.3 E 9 11 5 6 - - 0.0
16/05:00pm 24.7 23.5 13.9 51 6.4 E 13 19 7 10 - - 0.0
16/04:30pm 25.6 24.2 13.5 47 7.1 ESE 13 17 7 9 - - 0.0
16/04:00pm 26.7 24.7 13.8 45 7.7 S 17 24 9 13 - - 0.0
16/03:30pm 26.8 24.7 11.3 38 8.8 W 13 19 7 10 - - 0.0
16/03:00pm 27.7 26.3 13.3 41 8.5 W 13 19 7 10 - - 0.0
16/02:30pm 27.4 25.9 13.0 41 8.5 W 13 24 7 13 - - 0.0
16/02:00pm 27.2 26.2 13.5 42 8.1 W 11 19 6 10 - - 0.0
16/01:30pm 26.7 26.2 12.7 42 8.2 W 7 20 4 11 - - 0.0
16/01:00pm 26.4 25.3 13.2 44 7.8 W 11 19 6 10 - - 0.0
16/12:30pm 25.6 24.4 14.1 49 6.8 W 13 19 7 10 - - 0.0
16/12:00pm 24.8 24.1 12.1 45 7.3 WNW 7 15 4 8 - - 0.0
16/11:30am 23.5 23.2 11.5 47 6.8 NW 4 9 2 5 - - 0.0
16/11:00am 23.2 23.1 12.2 50 6.3 N 4 9 2 5 - - 0.0
16/10:30am 22.8 23.1 13.3 55 5.5 NNE 4 9 2 5 - - 0.0
16/10:00am 21.4 21.1 12.8 58 4.9 S 6 9 3 5 - - 0.0
16/09:30am 20.4 20.9 15.0 71 3.2 WNW 6 9 3 5 - - 0.0
16/09:00am 18.7 18.7 14.2 75 2.6 W 7 11 4 6 - - 0.0
16/08:30am 17.2 17.2 13.7 80 2.0 W 6 7 3 4 - - 0.0
16/08:00am 16.5 16.3 13.6 83 1.6 W 7 11 4 6 - - 0.0
16/07:30am 15.3 14.3 13.5 89 1.0 W 11 15 6 8 - - 0.0
16/07:00am 14.1 13.3 12.8 92 0.7 W 9 13 5 7 - - 0.0
16/06:30am 13.2 12.2 12.3 94 0.5 WSW 9 11 5 6 - - 0.0
16/06:00am 13.1 11.7 12.2 94 0.5 W 11 15 6 8 - - 0.0
16/05:30am 13.2 11.8 12.3 94 0.5 WSW 11 15 6 8 - - 0.0
16/05:00am 13.0 11.9 11.9 93 0.6 WSW 9 13 5 7 - - 0.0
16/04:30am 13.5 12.2 12.6 94 0.5 WSW 11 13 6 7 - - 0.0
16/04:00am 13.8 12.6 12.9 94 0.5 W 11 15 6 8 - - 0.0
16/03:30am 13.6 13.1 12.5 93 0.6 WSW 7 11 4 6 - - 0.0
16/03:00am 13.9 13.4 12.5 91 0.8 WSW 7 11 4 6 - - 0.0
16/02:30am 14.3 13.5 13.0 92 0.7 WSW 9 11 5 6 - - 0.0
16/02:00am 14.6 13.5 13.1 91 0.8 W 11 13 6 7 - - 0.0
16/01:30am 15.0 14.4 13.5 91 0.8 W 9 11 5 6 - - 0.0
16/01:00am 15.0 14.8 13.5 91 0.8 WSW 7 11 4 6 - - 0.0
16/12:30am 14.8 15.8 13.3 91 0.8 CALM 0 0 0 0 - - 0.0
16/12:00am 15.3 16.3 13.3 88 1.1 CALM 0 0 0 0 - - 0.0
 
Date/Time
EST
Tmp

°C
App
Tmp
°C
Dew
Point
°C
Rel
Hum
%
Delta-T

°C
Wind Press
QNH
hPa
Press
MSL
hPa
Rain
since
9 am
mm
Dir
 
Spd
km/h
Gust
km/h
Spd
kts
Gust
kts
15/11:30pm 16.4 17.7 14.2 87 1.3 CALM 0 0 0 0 - - 0.0

Latest Capital City Observations: Canberra | Sydney | Melbourne | Brisbane | Adelaide | Perth | Hobart | Darwin

Other Formats:

Comma delimited format used in spreadsheet applications
http://www.bom.gov.au/fwo/IDQ60901/IDQ60901.94562.axf

JavaScript Object Notation format (JSON) in row-major order
http://www.bom.gov.au/fwo/IDQ60901/IDQ60901.94562.json